createdAt,value
2018-02-14T00:00:54.714Z,11.00
2018-02-14T00:03:22.888Z,10.63
2018-02-14T00:05:51.054Z,11.02
2018-02-14T00:08:19.214Z,11.63
2018-02-14T00:10:47.408Z,11.57
2018-02-14T00:13:15.580Z,11.77
2018-02-14T00:15:43.713Z,11.43
2018-02-14T00:18:12.622Z,10.30
2018-02-14T00:20:41.134Z,11.12
2018-02-14T00:23:09.274Z,11.35
2018-02-14T00:25:37.419Z,10.18
2018-02-14T00:28:05.659Z,11.20
2018-02-14T00:30:34.319Z,12.10
2018-02-14T00:33:02.457Z,10.98
2018-02-14T00:35:31.385Z,12.45
2018-02-14T00:38:00.058Z,11.23
2018-02-14T00:40:28.198Z,11.60
2018-02-14T00:42:56.357Z,11.45
2018-02-14T00:45:24.597Z,11.75
2018-02-14T00:47:52.741Z,11.77
2018-02-14T00:50:20.901Z,11.27
2018-02-14T00:52:49.809Z,12.50
2018-02-14T00:55:17.948Z,12.82
2018-02-14T00:57:46.381Z,12.65
2018-02-14T01:00:14.525Z,12.43
2018-02-14T01:02:43.433Z,12.35
2018-02-14T01:05:11.589Z,11.63
2018-02-14T01:07:40.495Z,12.50
2018-02-14T01:10:08.649Z,11.75
2018-02-14T01:12:37.679Z,13.13
2018-02-14T01:15:05.822Z,12.63
2018-02-14T01:17:33.980Z,13.18
2018-02-14T01:20:09.461Z,13.90
2018-02-14T01:22:37.734Z,14.07
2018-02-14T01:25:06.497Z,12.25
2018-02-14T01:27:34.654Z,11.85
2018-02-14T01:30:03.592Z,12.82
2018-02-14T01:32:31.762Z,13.18
2018-02-14T01:34:59.900Z,11.70
2018-02-14T01:37:28.842Z,12.25
2018-02-14T01:39:56.982Z,11.93
2018-02-14T01:42:25.117Z,12.45
2018-02-14T01:44:53.832Z,12.27
2018-02-14T01:47:21.964Z,12.60
2018-02-14T01:49:50.133Z,11.93
2018-02-14T01:52:18.269Z,11.35
2018-02-14T01:54:46.448Z,12.52
2018-02-14T01:57:14.602Z,12.57
2018-02-14T01:59:42.750Z,11.60
2018-02-14T02:02:11.669Z,11.48
2018-02-14T02:04:40.178Z,12.77
2018-02-14T02:07:08.410Z,12.40
2018-02-14T02:09:36.559Z,11.45
2018-02-14T02:12:05.468Z,12.02
2018-02-14T02:14:33.641Z,12.15
2018-02-14T02:17:01.837Z,12.55
2018-02-14T02:19:29.977Z,11.27
2018-02-14T02:21:58.917Z,13.00
2018-02-14T02:24:27.073Z,12.15
2018-02-14T02:26:55.209Z,12.32
2018-02-14T02:29:24.147Z,13.30
2018-02-14T02:31:52.293Z,12.88
2018-02-14T02:34:20.433Z,13.18
2018-02-14T02:36:48.609Z,13.10
2018-02-14T02:39:35.565Z,11.73
2018-02-14T02:42:03.741Z,11.55
2018-02-14T02:44:31.886Z,11.63
2018-02-14T02:47:00.050Z,12.30
2018-02-14T02:49:28.959Z,12.05
2018-02-14T02:51:57.140Z,13.48
2018-02-14T02:54:25.282Z,10.90
2018-02-14T02:56:54.218Z,13.48
2018-02-14T02:59:22.394Z,11.68
2018-02-14T03:01:50.539Z,11.23
2018-02-14T03:04:18.677Z,13.30
2018-02-14T03:06:47.452Z,12.32
2018-02-14T03:09:15.593Z,11.88
2018-02-14T03:11:43.777Z,13.45
2018-02-14T03:14:11.961Z,12.45
2018-02-14T03:16:40.307Z,12.40
2018-02-14T03:19:08.481Z,13.05
2018-02-14T03:21:36.632Z,12.05
2018-02-14T03:24:04.775Z,12.32
2018-02-14T03:26:32.931Z,11.65
2018-02-14T03:29:01.074Z,13.45
2018-02-14T03:31:29.247Z,12.32
2018-02-14T03:33:57.410Z,12.50
2018-02-14T03:36:25.553Z,12.00
2018-02-14T03:38:54.515Z,11.15
2018-02-14T03:41:22.758Z,11.82
2018-02-14T03:43:50.902Z,12.02
2018-02-14T03:46:19.074Z,12.70
2018-02-14T03:48:47.987Z,11.77
2018-02-14T03:51:16.165Z,12.35
2018-02-14T03:53:44.337Z,11.85
2018-02-14T03:56:12.478Z,12.37
2018-02-14T03:58:41.389Z,12.55
2018-02-14T04:01:09.677Z,13.93
2018-02-14T04:03:37.829Z,12.43
2018-02-14T04:06:06.129Z,13.18
2018-02-14T04:08:34.314Z,13.20
2018-02-14T04:11:02.482Z,12.07
2018-02-14T04:13:30.629Z,13.52
2018-02-14T04:15:58.785Z,13.13
2018-02-14T04:18:26.992Z,12.95
2018-02-14T04:20:55.157Z,13.73
2018-02-14T04:23:23.548Z,12.30
2018-02-14T04:25:51.694Z,12.73
2018-02-14T04:28:21.153Z,13.55
2018-02-14T04:30:49.314Z,12.98
2018-02-14T04:33:17.466Z,12.70
2018-02-14T04:35:45.653Z,14.45
2018-02-14T04:38:13.803Z,12.85
2018-02-14T04:40:41.942Z,12.68
2018-02-14T04:43:10.870Z,14.07
2018-02-14T04:45:39.401Z,11.93
2018-02-14T04:48:07.558Z,14.48
2018-02-14T04:50:35.736Z,14.80
2018-02-14T04:53:03.873Z,14.13
2018-02-14T04:55:32.045Z,13.50
2018-02-14T04:58:00.202Z,13.68
2018-02-14T05:00:28.353Z,14.48
2018-02-14T05:02:57.285Z,12.52
2018-02-14T05:05:25.922Z,12.63
2018-02-14T05:07:54.837Z,12.75
2018-02-14T05:10:23.329Z,13.27
2018-02-14T05:12:51.478Z,15.10
2018-02-14T05:15:19.621Z,13.07
2018-02-14T05:17:47.898Z,14.73
2018-02-14T05:20:16.126Z,15.15
2018-02-14T05:22:44.298Z,14.75
2018-02-14T05:25:12.442Z,14.25
2018-02-14T05:27:40.590Z,14.07
2018-02-14T05:30:08.762Z,14.80
2018-02-14T05:32:37.825Z,14.40
2018-02-14T05:35:06.081Z,14.60
2018-02-14T05:37:34.243Z,13.02
2018-02-14T05:40:02.428Z,14.45
2018-02-14T05:42:30.610Z,14.13
2018-02-14T05:44:58.762Z,13.73
2018-02-14T05:47:26.909Z,16.23
2018-02-14T05:49:55.858Z,14.18
2018-02-14T05:52:24.006Z,15.85
2018-02-14T05:54:52.193Z,15.68
2018-02-14T05:57:20.461Z,15.50
2018-02-14T05:59:49.042Z,14.25
2018-02-14T06:02:17.569Z,13.73
2018-02-14T06:04:45.765Z,13.85
2018-02-14T06:07:14.688Z,15.40
2018-02-14T06:09:42.833Z,14.82
2018-02-14T06:12:11.025Z,15.43
2018-02-14T06:14:39.488Z,14.55
2018-02-14T06:17:07.629Z,14.13
2018-02-14T06:19:35.814Z,15.55
2018-02-14T06:22:04.738Z,17.15
2018-02-14T06:24:32.886Z,15.10
2018-02-14T06:27:02.174Z,14.25
2018-02-14T06:29:31.081Z,14.90
2018-02-14T06:32:00.034Z,16.60
2018-02-14T06:34:28.237Z,16.25
2018-02-14T06:36:57.150Z,17.27
2018-02-14T06:39:25.498Z,17.17
2018-02-14T06:41:54.435Z,14.68
2018-02-14T06:44:22.584Z,15.77
2018-02-14T06:46:50.770Z,16.50
2018-02-14T06:49:19.325Z,16.08
2018-02-14T06:51:47.488Z,15.02
2018-02-14T06:54:16.430Z,18.10
2018-02-14T06:56:44.584Z,24.20
2018-02-14T06:59:12.721Z,20.00
2018-02-14T07:01:40.887Z,16.65
2018-02-14T07:04:09.030Z,17.20
2018-02-14T07:06:37.174Z,17.00
2018-02-14T07:09:05.446Z,15.80
2018-02-14T07:11:33.593Z,18.17
2018-02-14T07:14:02.525Z,15.52
2018-02-14T07:16:30.802Z,17.48
2018-02-14T07:18:58.950Z,16.58
2018-02-14T07:21:27.092Z,17.67
2018-02-14T07:23:55.258Z,17.33
2018-02-14T07:26:23.441Z,16.40
2018-02-14T07:28:52.348Z,15.60
2018-02-14T07:31:21.305Z,15.63
2018-02-14T07:33:49.440Z,16.17
2018-02-14T07:36:17.588Z,16.30
2018-02-14T07:38:45.817Z,15.90
2018-02-14T07:41:13.958Z,19.67
2018-02-14T07:43:42.227Z,19.35
2018-02-14T07:46:10.361Z,18.30
2018-02-14T07:48:39.258Z,17.08
2018-02-14T07:51:08.193Z,17.37
2018-02-14T07:53:36.333Z,16.87
2018-02-14T07:56:04.530Z,15.75
2018-02-14T07:58:32.702Z,18.67
2018-02-14T08:01:00.841Z,17.45
2018-02-14T08:03:29.770Z,17.15
2018-02-14T08:05:57.925Z,18.85
2018-02-14T08:08:26.057Z,18.45
2018-02-14T08:10:54.190Z,16.77
2018-02-14T08:13:22.354Z,17.62
2018-02-14T08:15:50.488Z,17.42
2018-02-14T08:18:19.385Z,20.08
2018-02-14T08:20:49.512Z,21.50
2018-02-14T08:23:17.650Z,20.88
2018-02-14T08:25:45.883Z,18.77
2018-02-14T08:28:14.046Z,20.08
2018-02-14T08:30:42.193Z,19.50
2018-02-14T08:33:11.197Z,20.42
2018-02-14T08:35:39.357Z,20.92
2018-02-14T08:38:08.265Z,22.77
2018-02-14T08:40:37.285Z,21.27
2018-02-14T08:43:05.472Z,20.98
2018-02-14T08:45:33.630Z,21.83
2018-02-14T08:48:02.326Z,19.60
2018-02-14T08:50:30.492Z,20.05
2018-02-14T08:52:58.638Z,19.05
2018-02-14T08:55:27.030Z,18.15
2018-02-14T08:57:55.187Z,19.73
2018-02-14T09:00:23.337Z,22.23
2018-02-14T09:02:52.241Z,21.00
2018-02-14T09:05:20.393Z,17.83
2018-02-14T09:07:49.293Z,21.15
2018-02-14T09:10:18.223Z,17.87
2018-02-14T09:12:46.365Z,20.35
2018-02-14T09:15:14.661Z,18.05
2018-02-14T09:17:42.833Z,19.52
2018-02-14T09:20:11.134Z,19.98
2018-02-14T09:22:45.353Z,18.05
2018-02-14T09:25:13.599Z,19.90
2018-02-14T09:27:41.773Z,20.10
2018-02-14T09:30:09.911Z,20.35
2018-02-14T09:32:38.810Z,20.58
2018-02-14T09:35:07.762Z,20.33
2018-02-14T09:37:35.896Z,20.15
2018-02-14T09:40:04.029Z,21.30
2018-02-14T09:42:32.965Z,21.85
2018-02-14T09:45:01.117Z,20.75
2018-02-14T09:47:29.261Z,24.23
2018-02-14T09:49:58.178Z,20.00
2018-02-14T09:52:26.317Z,21.12
2018-02-14T09:54:54.481Z,22.80
2018-02-14T09:57:22.719Z,20.30
2018-02-14T09:59:51.361Z,22.33
2018-02-14T10:02:21.026Z,22.67
2018-02-14T10:04:49.178Z,19.30
2018-02-14T10:07:17.317Z,20.77
2018-02-14T10:09:46.253Z,22.40
2018-02-14T10:12:14.918Z,23.85
2018-02-14T10:14:43.734Z,23.73
2018-02-14T10:17:11.898Z,23.90
2018-02-14T10:19:40.042Z,25.00
2018-02-14T10:22:08.332Z,24.10
2018-02-14T10:24:36.467Z,23.23
2018-02-14T10:27:05.374Z,22.50
2018-02-14T10:29:33.573Z,23.67
2018-02-14T10:32:01.714Z,21.90
2018-02-14T10:34:29.860Z,22.67
2018-02-14T10:36:58.098Z,20.97
2018-02-14T10:39:26.265Z,20.77
2018-02-14T10:41:54.417Z,21.00
2018-02-14T10:44:22.629Z,20.67
2018-02-14T10:46:50.784Z,20.97
2018-02-14T10:49:19.032Z,22.40
2018-02-14T10:51:47.976Z,21.60
2018-02-14T10:54:16.128Z,21.03
2018-02-14T10:56:44.293Z,20.90
2018-02-14T10:59:13.181Z,20.70
2018-02-14T11:01:46.999Z,22.33
2018-02-14T11:04:21.317Z,19.87
2018-02-14T11:06:50.312Z,18.60
2018-02-14T11:09:18.494Z,19.13
2018-02-14T11:11:47.462Z,18.90
2018-02-14T11:14:16.215Z,19.80
2018-02-14T11:16:45.132Z,19.67
2018-02-14T11:19:13.285Z,17.73
2018-02-14T11:21:41.484Z,17.63
2018-02-14T11:24:09.634Z,15.47
2018-02-14T11:26:37.784Z,18.10
2018-02-14T11:29:06.740Z,17.50
2018-02-14T11:31:34.890Z,17.70
2018-02-14T11:34:03.037Z,17.50
2018-02-14T11:36:31.961Z,19.47
2018-02-14T11:39:00.102Z,17.57
2018-02-14T11:41:28.401Z,15.40
2018-02-14T11:43:56.858Z,15.07
2018-02-14T11:46:25.824Z,16.90
2018-02-14T11:48:53.979Z,17.77
2018-02-14T11:51:22.217Z,16.77
2018-02-14T11:53:50.386Z,14.73
2018-02-14T11:56:18.638Z,16.37
2018-02-14T11:58:47.540Z,17.73
2018-02-14T12:01:15.833Z,16.60
2018-02-14T12:03:43.969Z,16.83
2018-02-14T12:06:13.122Z,16.00
2018-02-14T12:08:42.400Z,16.63
2018-02-14T12:11:10.549Z,16.23
2018-02-14T12:13:38.692Z,14.40
2018-02-14T12:16:06.930Z,15.70
2018-02-14T12:18:35.073Z,15.33
2018-02-14T12:21:04.086Z,13.07
2018-02-14T12:23:32.789Z,13.50
2018-02-14T12:26:00.943Z,14.63
2018-02-14T12:28:29.138Z,13.70
2018-02-14T12:30:57.287Z,14.30
2018-02-14T12:33:25.431Z,13.40
2018-02-14T12:35:53.609Z,9.97
2018-02-14T12:38:21.917Z,11.20
2018-02-14T12:40:50.418Z,10.97
2018-02-14T12:43:18.665Z,12.03
2018-02-14T12:45:46.825Z,11.10
2018-02-14T12:48:14.999Z,11.00
2018-02-14T12:50:43.251Z,11.67
2018-02-14T12:53:12.170Z,12.07
2018-02-14T12:55:40.557Z,11.77
2018-02-14T12:58:08.700Z,11.70
2018-02-14T13:00:36.900Z,13.10
2018-02-14T13:03:05.221Z,13.20
2018-02-14T13:05:33.354Z,13.83
2018-02-14T13:08:01.496Z,13.63
2018-02-14T13:10:29.702Z,15.40
2018-02-14T13:12:57.877Z,14.23
2018-02-14T13:15:26.137Z,15.80
2018-02-14T13:17:54.337Z,15.50
2018-02-14T13:20:22.994Z,14.67
2018-02-14T13:22:51.146Z,14.73
2018-02-14T13:25:19.616Z,16.13
2018-02-14T13:27:48.529Z,14.50
2018-02-14T13:30:16.817Z,16.90
2018-02-14T13:32:45.446Z,15.10
2018-02-14T13:35:14.447Z,16.40
2018-02-14T13:37:43.402Z,14.90
2018-02-14T13:40:11.548Z,13.67
2018-02-14T13:42:39.730Z,13.40
2018-02-14T13:45:07.929Z,12.37
2018-02-14T13:47:36.080Z,13.30
2018-02-14T13:50:04.226Z,14.23
2018-02-14T13:52:32.401Z,25.30
2018-02-14T13:55:00.543Z,23.13
2018-02-14T13:57:28.825Z,13.77
2018-02-14T13:59:58.474Z,20.13
2018-02-14T14:02:26.621Z,31.80
2018-02-14T14:04:55.665Z,43.07
2018-02-14T14:07:24.070Z,32.20
2018-02-14T14:09:52.223Z,24.40
2018-02-14T14:12:20.398Z,14.83
2018-02-14T14:14:48.546Z,18.93
2018-02-14T14:17:16.702Z,17.03
2018-02-14T14:19:44.893Z,30.60
2018-02-14T14:22:13.047Z,27.30
2018-02-14T14:24:41.198Z,22.03
2018-02-14T14:27:09.381Z,17.23
2018-02-14T14:29:37.585Z,22.00
2018-02-14T14:32:05.738Z,15.00
2018-02-14T14:34:34.318Z,15.87
2018-02-14T14:37:02.909Z,24.00
2018-02-14T14:39:31.081Z,27.07
2018-02-14T14:41:59.226Z,27.77
2018-02-14T14:44:27.384Z,32.13
2018-02-14T14:46:56.377Z,27.40
2018-02-14T14:49:25.296Z,24.33
2018-02-14T14:51:53.485Z,22.10
2018-02-14T14:54:21.646Z,43.90
2018-02-14T14:56:49.786Z,29.67
2018-02-14T14:59:18.709Z,28.50
2018-02-14T15:01:46.894Z,31.70
2018-02-14T15:04:15.183Z,25.50
2018-02-14T15:06:43.329Z,28.50
2018-02-14T15:09:11.518Z,23.70
2018-02-14T15:11:39.694Z,24.30
2018-02-14T15:14:07.838Z,22.67
2018-02-14T15:16:36.015Z,22.80
2018-02-14T15:19:04.161Z,19.93
2018-02-14T15:21:33.074Z,18.03
2018-02-14T15:24:01.241Z,19.40
2018-02-14T15:26:29.381Z,19.90
2018-02-14T15:28:57.534Z,20.90
2018-02-14T15:31:25.714Z,23.13
2018-02-14T15:33:53.860Z,28.20
2018-02-14T15:36:22.031Z,22.70
2018-02-14T15:38:50.207Z,32.57
2018-02-14T15:41:18.341Z,39.97
2018-02-14T15:43:47.272Z,52.07
2018-02-14T15:46:15.647Z,41.83
2018-02-14T15:48:43.797Z,35.17
2018-02-14T15:51:11.941Z,27.30
2018-02-14T15:53:40.910Z,31.03
2018-02-14T15:56:09.053Z,30.37
2018-02-14T15:58:37.201Z,27.50
2018-02-14T16:01:05.378Z,35.90
2018-02-14T16:03:33.529Z,30.80
2018-02-14T16:06:02.432Z,27.10
2018-02-14T16:08:30.606Z,26.17
2018-02-14T16:10:58.756Z,24.75
2018-02-14T16:13:27.692Z,29.08
2018-02-14T16:15:55.848Z,27.92
2018-02-14T16:18:23.990Z,26.15
2018-02-14T16:20:52.210Z,27.80
2018-02-14T16:23:20.345Z,25.92
2018-02-14T16:25:49.270Z,26.62
2018-02-14T16:28:17.446Z,27.05
2018-02-14T16:30:45.585Z,25.65
2018-02-14T16:33:14.514Z,25.12
2018-02-14T16:35:42.686Z,27.25
2018-02-14T16:38:10.824Z,27.87
2018-02-14T16:40:39.738Z,25.85
2018-02-14T16:43:07.885Z,26.55
2018-02-14T16:45:36.809Z,25.75
2018-02-14T16:48:04.982Z,26.62
2018-02-14T16:50:33.158Z,24.92
2018-02-14T16:53:01.304Z,28.73
2018-02-14T16:55:29.974Z,27.52
2018-02-14T16:57:58.936Z,29.83
2018-02-14T17:00:27.905Z,26.98
2018-02-14T17:02:56.065Z,27.58
2018-02-14T17:05:24.205Z,30.40
2018-02-14T17:07:53.276Z,26.77
2018-02-14T17:10:21.470Z,28.58
2018-02-14T17:12:50.365Z,29.65
2018-02-14T17:15:19.388Z,29.50
2018-02-14T17:17:47.564Z,29.20
2018-02-14T17:20:15.722Z,28.33
2018-02-14T17:22:43.913Z,30.15
2018-02-14T17:25:12.178Z,27.73
2018-02-14T17:27:40.313Z,30.05
2018-02-14T17:30:09.220Z,28.20
2018-02-14T17:32:38.051Z,31.20
2018-02-14T17:35:06.189Z,31.83
2018-02-14T17:37:34.321Z,29.27
2018-02-14T17:40:02.470Z,31.37
2018-02-14T17:42:30.602Z,34.08
2018-02-14T17:44:58.790Z,31.40
2018-02-14T17:47:26.921Z,32.53
2018-02-14T17:49:55.862Z,35.85
2018-02-14T17:52:24.030Z,43.80
2018-02-14T17:54:52.171Z,50.15
2018-02-14T17:57:21.321Z,60.80
2018-02-14T17:59:49.474Z,61.45
2018-02-14T18:02:17.622Z,51.97
2018-02-14T18:04:45.917Z,44.88
2018-02-14T18:07:14.953Z,38.42
2018-02-14T18:09:44.014Z,36.22
2018-02-14T18:12:12.183Z,43.30
2018-02-14T18:14:40.338Z,39.10
2018-02-14T18:17:08.497Z,36.13
2018-02-14T18:19:36.634Z,37.42
2018-02-14T18:22:05.598Z,44.08
2018-02-14T18:24:33.764Z,40.78
2018-02-14T18:27:02.733Z,38.70
2018-02-14T18:29:30.882Z,39.80
2018-02-14T18:32:00.024Z,56.67
2018-02-14T18:34:28.202Z,45.00
2018-02-14T18:36:56.654Z,43.00
2018-02-14T18:39:25.018Z,34.20
2018-02-14T18:41:53.937Z,33.72
2018-02-14T18:44:22.076Z,32.70
2018-02-14T18:46:51.020Z,34.08
2018-02-14T18:49:19.202Z,38.42
2018-02-14T18:51:47.346Z,33.15
2018-02-14T18:54:15.558Z,36.50
2018-02-14T18:56:43.708Z,35.10
2018-02-14T18:59:11.882Z,31.90
2018-02-14T19:01:40.067Z,33.92
2018-02-14T19:04:08.318Z,31.37
2018-02-14T19:06:36.461Z,34.15
2018-02-14T19:09:04.822Z,31.37
2018-02-14T19:11:32.962Z,38.25
2018-02-14T19:14:01.113Z,39.17
2018-02-14T19:16:29.489Z,35.85
2018-02-14T19:18:57.626Z,34.50
2018-02-14T19:21:26.563Z,33.08
2018-02-14T19:23:54.827Z,31.37
2018-02-14T19:26:22.995Z,34.03
2018-02-14T19:28:51.174Z,36.28
2018-02-14T19:31:19.340Z,29.30
2018-02-14T19:33:47.510Z,31.50
2018-02-14T19:36:15.669Z,31.83
2018-02-14T19:38:43.824Z,29.92
2018-02-14T19:41:12.753Z,29.50
2018-02-14T19:43:40.907Z,30.52
2018-02-14T19:46:09.058Z,33.42
2018-02-14T19:48:37.982Z,30.17
2018-02-14T19:51:06.685Z,28.48
2018-02-14T19:53:35.749Z,31.17
2018-02-14T19:56:03.919Z,32.00
2018-02-14T19:58:32.073Z,28.87
2018-02-14T20:01:00.986Z,28.80
2018-02-14T20:03:29.274Z,31.30
2018-02-14T20:05:57.414Z,40.65
2018-02-14T20:08:26.337Z,49.33
2018-02-14T20:10:54.718Z,34.80
2018-02-14T20:13:22.854Z,27.62
2018-02-14T20:15:51.782Z,27.95
2018-02-14T20:18:19.977Z,32.47
2018-02-14T20:20:48.119Z,28.52
2018-02-14T20:23:16.290Z,32.05
2018-02-14T20:25:44.582Z,32.13
2018-02-14T20:28:12.722Z,41.00
2018-02-14T20:30:40.861Z,37.15
2018-02-14T20:33:09.026Z,42.00
2018-02-14T20:35:37.377Z,32.97
2018-02-14T20:38:06.276Z,32.05
2018-02-14T20:40:34.566Z,34.80
2018-02-14T20:43:02.707Z,36.45
2018-02-14T20:45:30.855Z,36.58
2018-02-14T20:47:59.014Z,32.72
2018-02-14T20:50:27.926Z,35.63
2018-02-14T20:52:56.093Z,43.72
2018-02-14T20:55:24.231Z,30.33
2018-02-14T20:57:52.373Z,37.60
2018-02-14T21:00:20.545Z,36.67
2018-02-14T21:02:48.690Z,37.85
2018-02-14T21:05:16.825Z,32.78
2018-02-14T21:07:45.785Z,34.30
2018-02-14T21:10:13.969Z,37.53
2018-02-14T21:12:42.190Z,38.22
2018-02-14T21:15:10.681Z,35.17
2018-02-14T21:17:38.834Z,39.58
2018-02-14T21:20:07.741Z,37.20
2018-02-14T21:22:35.937Z,37.53
2018-02-14T21:25:04.114Z,37.65
2018-02-14T21:27:32.645Z,36.50
2018-02-14T21:30:01.561Z,34.60
2018-02-14T21:32:29.697Z,35.03
2018-02-14T21:34:57.918Z,37.47
2018-02-14T21:37:26.061Z,33.35
2018-02-14T21:39:54.965Z,31.17
2018-02-14T21:42:23.158Z,27.80
2018-02-14T21:44:51.298Z,28.15
2018-02-14T21:47:20.213Z,28.33
2018-02-14T21:49:48.490Z,29.67
2018-02-14T21:52:16.655Z,28.23
2018-02-14T21:54:44.846Z,30.60
2018-02-14T21:57:13.006Z,27.92
2018-02-14T21:59:41.188Z,26.50
2018-02-14T22:02:09.326Z,25.73
2018-02-14T22:04:38.253Z,27.13
2018-02-14T22:07:06.384Z,27.02
2018-02-14T22:09:35.365Z,25.27
2018-02-14T22:12:04.279Z,24.37
2018-02-14T22:14:32.473Z,24.50
2018-02-14T22:17:00.676Z,24.08
2018-02-14T22:19:28.927Z,23.90
2018-02-14T22:21:57.057Z,23.12
2018-02-14T22:24:26.989Z,23.02
2018-02-14T22:26:55.125Z,21.85
2018-02-14T22:29:23.260Z,24.00
2018-02-14T22:31:51.426Z,24.58
2018-02-14T22:34:19.557Z,24.95
2018-02-14T22:36:48.467Z,24.17
2018-02-14T22:39:16.681Z,25.65
2018-02-14T22:41:44.813Z,25.40
2018-02-14T22:44:12.956Z,24.65
2018-02-14T22:46:41.330Z,22.50
2018-02-14T22:49:09.461Z,22.55
2018-02-14T22:51:38.180Z,25.37
2018-02-14T22:54:06.329Z,25.67
2018-02-14T22:56:34.490Z,23.30
2018-02-14T22:59:02.753Z,25.48
2018-02-14T23:01:30.890Z,23.62
2018-02-14T23:03:59.794Z,23.70
2018-02-14T23:06:27.941Z,24.33
2018-02-14T23:08:56.171Z,22.83
2018-02-14T23:11:24.347Z,24.10
2018-02-14T23:13:52.481Z,24.05
2018-02-14T23:16:21.382Z,23.40
2018-02-14T23:18:49.575Z,23.83
2018-02-14T23:21:17.717Z,24.10
2018-02-14T23:23:46.889Z,25.33
2018-02-14T23:26:15.065Z,26.02
2018-02-14T23:28:43.293Z,27.35
2018-02-14T23:31:11.429Z,25.77
2018-02-14T23:33:40.355Z,27.23
2018-02-14T23:36:08.492Z,24.30
2018-02-14T23:38:37.494Z,26.05
2018-02-14T23:41:05.856Z,29.77
2018-02-14T23:43:34.765Z,28.25
2018-02-14T23:46:02.945Z,26.05
2018-02-14T23:48:31.091Z,30.48
2018-02-14T23:50:59.999Z,27.77
2018-02-14T23:53:28.169Z,24.55
2018-02-14T23:55:56.365Z,27.85
2018-02-14T23:58:24.769Z,25.77
